Time;durP1;ratioP1;P1;durP2;ratioP2;P2;SDS_P1;SDS_P2;PMS_P1;PMS_P2;Temp;Humidity;BMP_temperature;BMP_pressure;BME280_temperature;BME280_humidity;BME280_pressure;Samples;Min_cycle;Max_cycle;Signal;HPM_P1;HPM_P2
2022/08/24 00:00:09;;;;;;;13.68;9.65;;;;;;;;;;5092368;28;20106;-84
2022/08/24 00:02:35;;;;;;;18.50;10.20;;;;;;;;;;5088543;28;20475;-84
2022/08/24 00:05:00;;;;;;;11.52;9.18;;;;;;;;;;5088595;28;20031;-84
2022/08/24 00:07:26;;;;;;;14.73;9.73;;;;;;;;;;5085728;28;20055;-84
2022/08/24 00:09:52;;;;;;;15.77;10.23;;;;;;;;;;5092047;28;20020;-86
2022/08/24 00:12:17;;;;;;;15.63;10.40;;;;;;;;;;5089973;28;20024;-84
2022/08/24 00:14:43;;;;;;;16.27;10.95;;;;;;;;;;5088794;28;20027;-85
2022/08/24 00:17:08;;;;;;;13.13;9.88;;;;;;;;;;5091479;28;20077;-85
2022/08/24 00:19:35;;;;;;;13.40;9.10;;;;;;;;;;5090760;28;20023;-84
2022/08/24 00:22:00;;;;;;;13.13;9.90;;;;;;;;;;5091727;28;20032;-85
2022/08/24 00:24:26;;;;;;;15.15;10.73;;;;;;;;;;5086204;28;20024;-84
2022/08/24 00:26:53;;;;;;;13.60;9.43;;;;;;;;;;5089012;28;20468;-84
2022/08/24 00:29:20;;;;;;;15.85;10.60;;;;;;;;;;5090194;28;20357;-84
2022/08/24 00:31:46;;;;;;;14.95;10.30;;;;;;;;;;5087833;28;20028;-84
2022/08/24 00:34:12;;;;;;;14.52;10.27;;;;;;;;;;5089143;28;20364;-84
2022/08/24 00:36:39;;;;;;;15.73;10.20;;;;;;;;;;5090454;28;20043;-84
2022/08/24 00:39:05;;;;;;;15.50;9.65;;;;;;;;;;5085714;28;20792;-85
2022/08/24 00:41:31;;;;;;;12.00;10.23;;;;;;;;;;5085752;28;20111;-85
2022/08/24 00:44:00;;;;;;;14.52;9.85;;;;;;;;;;5090029;28;20539;-84
2022/08/24 00:46:50;;;;;;;13.38;9.60;;;;;;;;;;5084297;28;20028;-84
2022/08/24 00:49:27;;;;;;;14.75;9.20;;;;;;;;;;5086578;28;20032;-85
2022/08/24 00:52:04;;;;;;;14.60;9.23;;;;;;;;;;5091423;28;20024;-84
2022/08/24 00:54:32;;;;;;;12.25;8.65;;;;;;;;;;5087817;28;20480;-84
2022/08/24 00:57:01;;;;;;;14.95;9.73;;;;;;;;;;5090699;28;20456;-84
2022/08/24 00:59:35;;;;;;;13.23;9.50;;;;;;;;;;5092147;28;20081;-88
2022/08/24 01:02:16;;;;;;;13.98;9.18;;;;;;;;;;5089235;28;20114;-84
2022/08/24 01:05:04;;;;;;;14.25;9.10;;;;;;;;;;5090767;28;20162;-84
2022/08/24 01:07:32;;;;;;;16.15;10.63;;;;;;;;;;5085643;28;20052;-84
2022/08/24 01:10:03;;;;;;;14.05;9.73;;;;;;;;;;5089632;28;20028;-84
2022/08/24 01:12:32;;;;;;;13.77;10.45;;;;;;;;;;5090414;28;20069;-84
2022/08/24 01:15:00;;;;;;;19.17;11.45;;;;;;;;;;5088453;28;20043;-84
2022/08/24 01:20:11;;;;;;;15.15;10.02;;;;;;;;;;5089802;28;20038;-84
2022/08/24 01:23:02;;;;;;;19.48;11.68;;;;;;;;;;5088455;28;20028;-84
2022/08/24 01:25:30;;;;;;;14.82;11.00;;;;;;;;;;5088568;28;20028;-84
2022/08/24 01:27:59;;;;;;;15.90;10.43;;;;;;;;;;5089214;28;20111;-84
2022/08/24 01:30:25;;;;;;;15.85;10.77;;;;;;;;;;5089421;28;20027;-84
2022/08/24 01:32:57;;;;;;;14.95;10.77;;;;;;;;;;5089391;28;20032;-85
2022/08/24 01:35:23;;;;;;;16.52;11.63;;;;;;;;;;5088265;28;20028;-84
2022/08/24 01:37:49;;;;;;;14.48;10.68;;;;;;;;;;5090242;28;20581;-84
2022/08/24 01:40:15;;;;;;;15.45;10.18;;;;;;;;;;5088447;28;20024;-84
2022/08/24 01:42:47;;;;;;;11.00;8.48;;;;;;;;;;5087814;28;20032;-84
2022/08/24 01:45:14;;;;;;;14.38;9.48;;;;;;;;;;5087555;28;20024;-84
2022/08/24 01:47:39;;;;;;;12.90;8.93;;;;;;;;;;5088512;28;20028;-84
2022/08/24 01:50:05;;;;;;;11.43;8.60;;;;;;;;;;5090197;28;20082;-84
2022/08/24 01:52:32;;;;;;;14.90;10.23;;;;;;;;;;5087213;28;20040;-84
2022/08/24 01:54:57;;;;;;;10.63;8.38;;;;;;;;;;5089390;28;20093;-85
2022/08/24 01:57:24;;;;;;;12.73;9.38;;;;;;;;;;5089402;28;20049;-83
2022/08/24 01:59:50;;;;;;;13.05;9.27;;;;;;;;;;5089886;28;20023;-85
2022/08/24 02:02:21;;;;;;;15.93;11.07;;;;;;;;;;5090026;28;20040;-84
2022/08/24 02:04:46;;;;;;;13.13;8.82;;;;;;;;;;5090231;28;20035;-87
2022/08/24 02:07:12;;;;;;;14.13;9.23;;;;;;;;;;5089752;28;20038;-84
2022/08/24 02:09:38;;;;;;;11.80;8.88;;;;;;;;;;5089714;28;20136;-84
2022/08/24 02:12:05;;;;;;;14.65;9.05;;;;;;;;;;5087713;28;20503;-84
2022/08/24 02:14:31;;;;;;;15.88;9.70;;;;;;;;;;5090146;28;20028;-85
2022/08/24 02:16:57;;;;;;;13.15;9.38;;;;;;;;;;5090281;28;20357;-82
2022/08/24 02:19:24;;;;;;;14.73;10.48;;;;;;;;;;5090185;28;20091;-84
2022/08/24 02:21:50;;;;;;;14.40;10.50;;;;;;;;;;5089522;28;20028;-83
2022/08/24 02:24:15;;;;;;;15.20;9.63;;;;;;;;;;5090965;28;20376;-83
2022/08/24 02:26:41;;;;;;;15.77;10.07;;;;;;;;;;5089604;28;20039;-86
2022/08/24 02:29:06;;;;;;;16.15;10.60;;;;;;;;;;5090909;28;20053;-84
2022/08/24 02:31:33;;;;;;;21.83;11.68;;;;;;;;;;5090440;28;20036;-83
2022/08/24 02:33:58;;;;;;;16.30;12.10;;;;;;;;;;5088948;28;20015;-84
2022/08/24 02:36:24;;;;;;;19.13;11.30;;;;;;;;;;5087901;28;20027;-85
2022/08/24 02:38:50;;;;;;;20.40;12.02;;;;;;;;;;5090650;28;20488;-84
2022/08/24 02:41:15;;;;;;;17.70;12.40;;;;;;;;;;5094081;28;20077;-85
2022/08/24 02:43:41;;;;;;;20.05;12.00;;;;;;;;;;5092129;28;20036;-85
2022/08/24 02:46:06;;;;;;;15.27;10.63;;;;;;;;;;5090098;28;20020;-84
2022/08/24 02:48:32;;;;;;;15.40;10.25;;;;;;;;;;5093745;28;20054;-84
2022/08/24 02:50:57;;;;;;;14.80;11.10;;;;;;;;;;5092308;28;20040;-83
2022/08/24 02:53:23;;;;;;;16.90;9.90;;;;;;;;;;5093140;28;20062;-84
2022/08/24 02:55:49;;;;;;;15.27;9.95;;;;;;;;;;5092947;28;20095;-83
2022/08/24 02:58:15;;;;;;;14.27;10.52;;;;;;;;;;5093768;28;20024;-83
2022/08/24 03:00:43;;;;;;;13.57;8.80;;;;;;;;;;5090294;28;20402;-83
2022/08/24 03:03:10;;;;;;;11.52;7.45;;;;;;;;;;5090903;28;20031;-83
2022/08/24 03:05:36;;;;;;;11.40;8.65;;;;;;;;;;5093960;28;20050;-84
2022/08/24 03:08:01;;;;;;;12.57;8.73;;;;;;;;;;5092115;28;20480;-84
2022/08/24 03:10:27;;;;;;;11.23;7.65;;;;;;;;;;5088497;28;20497;-84
2022/08/24 03:12:52;;;;;;;10.68;7.55;;;;;;;;;;5092407;28;20470;-85
2022/08/24 03:15:21;;;;;;;11.18;7.25;;;;;;;;;;5087666;28;20032;-84
2022/08/24 03:17:48;;;;;;;12.32;7.05;;;;;;;;;;5092677;28;20115;-85
2022/08/24 03:20:16;;;;;;;11.57;7.65;;;;;;;;;;5093517;28;20035;-83
2022/08/24 03:22:42;;;;;;;10.00;7.13;;;;;;;;;;5090763;28;20043;-84
2022/08/24 03:25:09;;;;;;;13.00;7.40;;;;;;;;;;5087823;28;20471;-85
2022/08/24 03:27:35;;;;;;;9.10;6.97;;;;;;;;;;5093551;28;20064;-84
2022/08/24 03:30:00;;;;;;;9.57;6.70;;;;;;;;;;5091873;28;20074;-84
2022/08/24 03:32:26;;;;;;;10.43;7.20;;;;;;;;;;5090446;28;20044;-85
2022/08/24 03:34:53;;;;;;;8.07;6.38;;;;;;;;;;5093369;28;20089;-83
2022/08/24 03:37:19;;;;;;;10.07;7.45;;;;;;;;;;5087561;28;20031;-84
2022/08/24 03:39:46;;;;;;;8.55;6.80;;;;;;;;;;5090400;28;20412;-84
2022/08/24 03:42:12;;;;;;;8.75;6.53;;;;;;;;;;5090105;28;20077;-83
2022/08/24 03:44:37;;;;;;;11.77;6.28;;;;;;;;;;5088932;28;20419;-84
2022/08/24 03:47:03;;;;;;;10.20;6.30;;;;;;;;;;5086247;28;20428;-84
2022/08/24 03:49:28;;;;;;;11.15;6.18;;;;;;;;;;5086929;28;20040;-85
2022/08/24 03:51:54;;;;;;;9.70;6.15;;;;;;;;;;5085024;28;20078;-84
2022/08/24 03:54:19;;;;;;;40.20;28.95;;;;;;;;;;5086586;28;20123;-84
2022/08/24 03:56:45;;;;;;;8.70;6.20;;;;;;;;;;5088160;28;20063;-84
2022/08/24 03:59:10;;;;;;;8.52;6.05;;;;;;;;;;5084694;28;20422;-84
2022/08/24 04:01:37;;;;;;;11.07;6.28;;;;;;;;;;5090544;28;20032;-83
2022/08/24 04:04:03;;;;;;;8.98;6.03;;;;;;;;;;5087071;28;20089;-82
2022/08/24 04:06:28;;;;;;;11.55;7.40;;;;;;;;;;5090177;28;20028;-84
2022/08/24 04:08:55;;;;;;;8.02;5.20;;;;;;;;;;5087794;28;20559;-83
2022/08/24 04:11:23;;;;;;;8.55;6.30;;;;;;;;;;5091361;28;20571;-84
2022/08/24 04:13:52;;;;;;;7.25;5.80;;;;;;;;;;5092518;28;20031;-83
2022/08/24 04:16:19;;;;;;;9.32;5.65;;;;;;;;;;5088959;28;20028;-82
2022/08/24 04:18:46;;;;;;;7.50;5.60;;;;;;;;;;5088838;28;20064;-83
2022/08/24 04:21:32;;;;;;;8.73;5.65;;;;;;;;;;5089898;28;20032;-83
2022/08/24 04:23:59;;;;;;;8.65;5.72;;;;;;;;;;5089748;28;20024;-83
2022/08/24 04:26:28;;;;;;;8.95;5.95;;;;;;;;;;5088034;28;20024;-83
2022/08/24 04:28:55;;;;;;;8.32;5.53;;;;;;;;;;5088863;28;20051;-82
2022/08/24 04:31:21;;;;;;;10.32;5.85;;;;;;;;;;5087156;28;20035;-83
2022/08/24 04:33:50;;;;;;;8.68;5.68;;;;;;;;;;5088219;28;20028;-81
2022/08/24 04:36:17;;;;;;;;;;;;;;;;;;5090106;28;20019;-82
2022/08/24 04:38:43;;;;;;;10.27;5.60;;;;;;;;;;5089566;28;19912;-84
2022/08/24 04:41:13;;;;;;;7.28;5.30;;;;;;;;;;5088830;28;20089;-84
2022/08/24 04:43:39;;;;;;;;;;;;;;;;;;5088338;28;20032;-83
2022/08/24 04:46:06;;;;;;;6.43;4.53;;;;;;;;;;5089447;28;19960;-83
2022/08/24 04:48:33;;;;;;;8.77;5.10;;;;;;;;;;5092147;28;20032;-83
2022/08/24 04:51:05;;;;;;;6.30;5.07;;;;;;;;;;5091303;28;20142;-83
2022/08/24 04:53:31;;;;;;;7.03;5.15;;;;;;;;;;5089637;28;20060;-83
2022/08/24 04:55:57;;;;;;;7.45;5.38;;;;;;;;;;5088939;28;20111;-83
2022/08/24 04:58:23;;;;;;;7.20;5.70;;;;;;;;;;5089107;28;20084;-83
2022/08/24 05:00:48;;;;;;;7.22;5.43;;;;;;;;;;5089803;28;20016;-85
2022/08/24 05:03:14;;;;;;;7.90;5.07;;;;;;;;;;5088417;28;20020;-84
2022/08/24 05:05:41;;;;;;;6.50;4.72;;;;;;;;;;5092063;28;20028;-84
2022/08/24 05:08:07;;;;;;;5.95;4.57;;;;;;;;;;5088386;28;20831;-84
2022/08/24 05:10:32;;;;;;;5.60;4.28;;;;;;;;;;5091406;28;20020;-85
2022/08/24 05:12:58;;;;;;;6.47;5.20;;;;;;;;;;5091859;28;20080;-84
2022/08/24 05:15:23;;;;;;;7.22;5.15;;;;;;;;;;5089584;28;20028;-84
2022/08/24 05:17:49;;;;;;;6.78;4.45;;;;;;;;;;5091939;28;20032;-84
2022/08/24 05:20:15;;;;;;;7.20;4.57;;;;;;;;;;5089216;28;20065;-84
2022/08/24 05:22:40;;;;;;;6.03;4.13;;;;;;;;;;5086114;28;20028;-83
2022/08/24 05:25:06;;;;;;;4.95;3.72;;;;;;;;;;5091612;28;20024;-83
2022/08/24 05:27:33;;;;;;;28.80;22.15;;;;;;;;;;5086586;28;20472;-82
2022/08/24 05:29:58;;;;;;;7.43;5.18;;;;;;;;;;5088457;28;20020;-85
2022/08/24 05:32:24;;;;;;;7.03;5.13;;;;;;;;;;5090398;28;20124;-86
2022/08/24 05:34:49;;;;;;;7.53;4.82;;;;;;;;;;5087592;28;20036;-87
2022/08/24 05:37:15;;;;;;;6.82;4.47;;;;;;;;;;5090939;28;20031;-85
2022/08/24 05:39:40;;;;;;;5.88;4.53;;;;;;;;;;5090687;28;20028;-88
2022/08/24 05:42:06;;;;;;;8.07;5.18;;;;;;;;;;5091251;28;20016;-83
2022/08/24 05:44:32;;;;;;;8.20;5.18;;;;;;;;;;5091677;28;20487;-85
2022/08/24 05:46:58;;;;;;;7.28;5.10;;;;;;;;;;5083023;28;20062;-85
2022/08/24 05:49:25;;;;;;;6.53;4.28;;;;;;;;;;5087601;28;20075;-84
2022/08/24 05:51:50;;;;;;;6.00;4.50;;;;;;;;;;5086113;28;20030;-84
2022/08/24 05:54:17;;;;;;;6.43;4.30;;;;;;;;;;5087985;28;20036;-85
2022/08/24 05:56:44;;;;;;;5.78;4.07;;;;;;;;;;5090004;28;20023;-84
2022/08/24 05:59:10;;;;;;;6.45;4.22;;;;;;;;;;5089021;28;20693;-85
2022/08/24 06:01:37;;;;;;;6.70;4.55;;;;;;;;;;5088988;28;20032;-84
2022/08/24 06:04:03;;;;;;;7.72;4.85;;;;;;;;;;5086834;28;20476;-83
2022/08/24 06:06:30;;;;;;;7.15;4.88;;;;;;;;;;5087348;28;20032;-85
2022/08/24 06:08:58;;;;;;;6.30;4.55;;;;;;;;;;5088975;28;20112;-84
2022/08/24 06:11:32;;;;;;;5.70;4.72;;;;;;;;;;5091149;28;20059;-83
2022/08/24 06:14:02;;;;;;;6.95;4.97;;;;;;;;;;5095889;28;20035;-83
2022/08/24 06:16:29;;;;;;;;;;;;;;;;;;5092900;28;20026;-84
2022/08/24 06:18:55;;;;;;;8.00;4.82;;;;;;;;;;5086838;28;19951;-84
2022/08/24 06:21:26;;;;;;;7.75;4.22;;;;;;;;;;5094305;28;20055;-84
2022/08/24 06:23:51;;;;;;;12.23;4.35;;;;;;;;;;5091343;28;20028;-83
2022/08/24 06:29:04;;;;;;;5.40;4.38;;;;;;;;;;5090819;28;20031;-84
2022/08/24 06:31:33;;;;;;;5.63;4.55;;;;;;;;;;5090164;28;20032;-84
2022/08/24 06:33:59;;;;;;;6.78;4.90;;;;;;;;;;5093236;28;20081;-84
2022/08/24 06:36:24;;;;;;;6.55;4.65;;;;;;;;;;5092391;28;20036;-83
2022/08/24 06:38:50;;;;;;;9.93;5.60;;;;;;;;;;5093281;28;20050;-83
2022/08/24 06:41:15;;;;;;;8.55;5.35;;;;;;;;;;5088904;28;20357;-83
2022/08/24 06:43:40;;;;;;;8.75;5.70;;;;;;;;;;5091491;28;20529;-83
2022/08/24 06:46:07;;;;;;;7.18;5.38;;;;;;;;;;5090751;28;20058;-83
2022/08/24 06:48:33;;;;;;;6.68;4.90;;;;;;;;;;5090831;28;20077;-83
2022/08/24 06:50:59;;;;;;;7.07;5.00;;;;;;;;;;5088596;28;20028;-82
2022/08/24 06:53:27;;;;;;;9.13;6.20;;;;;;;;;;5092517;28;20139;-82
2022/08/24 06:55:56;;;;;;;6.38;5.03;;;;;;;;;;5093371;28;20024;-83
2022/08/24 06:58:24;;;;;;;8.15;4.55;;;;;;;;;;5091102;28;20055;-84
2022/08/24 07:00:49;;;;;;;6.53;5.13;;;;;;;;;;5092348;28;20055;-84
2022/08/24 07:03:15;;;;;;;7.28;5.43;;;;;;;;;;5092139;28;20028;-83
2022/08/24 07:05:57;;;;;;;8.70;5.13;;;;;;;;;;5093511;28;20036;-84
2022/08/24 07:08:23;;;;;;;7.93;5.68;;;;;;;;;;5092350;28;20077;-82
2022/08/24 07:10:50;;;;;;;7.95;5.25;;;;;;;;;;5093132;28;20099;-83
2022/08/24 07:13:15;;;;;;;8.50;5.40;;;;;;;;;;5093900;28;20016;-84
2022/08/24 07:15:42;;;;;;;6.85;4.63;;;;;;;;;;5092511;28;20028;-84
2022/08/24 07:18:11;;;;;;;6.60;5.07;;;;;;;;;;5095893;28;20098;-83
2022/08/24 07:20:37;;;;;;;8.23;5.25;;;;;;;;;;5093965;28;20106;-83
2022/08/24 07:23:04;;;;;;;8.63;5.68;;;;;;;;;;5095112;28;20444;-84
2022/08/24 07:25:30;;;;;;;7.22;5.70;;;;;;;;;;5090545;28;20095;-83
2022/08/24 07:27:56;;;;;;;5.80;4.80;;;;;;;;;;5095177;28;20042;-83
2022/08/24 07:30:21;;;;;;;7.05;5.57;;;;;;;;;;5092505;28;20040;-84
2022/08/24 07:32:46;;;;;;;8.35;6.43;;;;;;;;;;5093489;28;20032;-83
2022/08/24 07:35:12;;;;;;;7.93;5.45;;;;;;;;;;5095833;28;20035;-85
2022/08/24 07:37:38;;;;;;;8.20;6.28;;;;;;;;;;5094979;28;20043;-84
2022/08/24 07:40:04;;;;;;;9.52;5.45;;;;;;;;;;5093463;28;20034;-83
2022/08/24 07:42:29;;;;;;;7.35;5.47;;;;;;;;;;5094063;28;20020;-84
2022/08/24 07:44:55;;;;;;;6.18;4.97;;;;;;;;;;5094360;28;20081;-84
2022/08/24 07:47:20;;;;;;;6.07;5.38;;;;;;;;;;5092039;28;20484;-84
2022/08/24 07:49:46;;;;;;;8.90;7.00;;;;;;;;;;5093779;28;20020;-84
2022/08/24 07:52:12;;;;;;;7.43;5.03;;;;;;;;;;5090261;28;20051;-83
2022/08/24 07:54:38;;;;;;;6.10;4.43;;;;;;;;;;5089357;28;20396;-83
2022/08/24 07:57:05;;;;;;;6.32;5.22;;;;;;;;;;5088023;28;20043;-83
2022/08/24 07:59:31;;;;;;;6.13;4.75;;;;;;;;;;5086806;28;20104;-83
2022/08/24 08:01:57;;;;;;;7.50;5.00;;;;;;;;;;5090813;28;20024;-83
2022/08/24 08:04:24;;;;;;;5.78;4.53;;;;;;;;;;5088531;28;20028;-83
2022/08/24 08:06:50;;;;;;;6.72;5.05;;;;;;;;;;5088705;28;20020;-83
2022/08/24 08:09:16;;;;;;;7.95;4.82;;;;;;;;;;5090833;28;20388;-85
2022/08/24 08:11:42;;;;;;;7.57;5.05;;;;;;;;;;5088069;28;20050;-83
2022/08/24 08:14:08;;;;;;;6.53;5.10;;;;;;;;;;5087787;28;20059;-83
2022/08/24 08:16:33;;;;;;;7.05;5.05;;;;;;;;;;5087102;28;20063;-84
2022/08/24 08:18:59;;;;;;;7.18;5.03;;;;;;;;;;5082505;28;20102;-83
2022/08/24 08:24:14;;;;;;;5.60;4.25;;;;;;;;;;5086654;28;20031;-85
2022/08/24 08:26:42;;;;;;;5.80;4.03;;;;;;;;;;5089087;28;20089;-83
2022/08/24 08:29:09;;;;;;;6.13;4.00;;;;;;;;;;5088927;28;20039;-83
2022/08/24 08:31:36;;;;;;;4.90;3.50;;;;;;;;;;5090281;28;20055;-83
2022/08/24 08:34:02;;;;;;;4.32;3.13;;;;;;;;;;5089479;28;20106;-83
2022/08/24 08:36:28;;;;;;;4.47;3.45;;;;;;;;;;5088431;28;20150;-83
2022/08/24 08:38:53;;;;;;;6.00;3.92;;;;;;;;;;5090201;28;20119;-82
2022/08/24 08:41:43;;;;;;;4.25;3.40;;;;;;;;;;5087112;28;20044;-82
2022/08/24 08:44:42;;;;;;;4.25;3.65;;;;;;;;;;5086988;28;20051;-85
2022/08/24 08:47:58;;;;;;;4.35;3.55;;;;;;;;;;5084536;28;20490;-82
2022/08/24 08:50:39;;;;;;;6.47;3.58;;;;;;;;;;5084125;28;20115;-83
2022/08/24 08:53:35;;;;;;;5.30;4.00;;;;;;;;;;5084459;28;20060;-82
2022/08/24 08:56:09;;;;;;;5.28;4.70;;;;;;;;;;5079470;28;20423;-82
2022/08/24 08:59:09;;;;;;;5.20;4.50;;;;;;;;;;5089552;28;20525;-83
2022/08/24 09:01:46;;;;;;;;;;;;;;;;;;5081181;28;20024;-81
2022/08/24 09:04:30;;;;;;;6.43;4.95;;;;;;;;;;5087784;28;20516;-82
2022/08/24 09:07:17;;;;;;;7.43;4.20;;;;;;;;;;5083938;28;20028;-83
2022/08/24 09:10:02;;;;;;;6.93;4.63;;;;;;;;;;5086247;28;20037;-86
2022/08/24 09:12:58;;;;;;;4.72;4.05;;;;;;;;;;5086753;28;20024;-83
2022/08/24 09:15:35;;;;;;;5.22;4.50;;;;;;;;;;5090871;28;20097;-84
2022/08/24 09:18:42;;;;;;;5.07;4.45;;;;;;;;;;5089277;28;20020;-83
2022/08/24 09:21:26;;;;;;;5.65;4.00;;;;;;;;;;5043953;28;20469;-86
2022/08/24 09:24:23;;;;;;;4.30;3.70;;;;;;;;;;5085190;28;20043;-83
2022/08/24 09:26:55;;;;;;;6.05;4.18;;;;;;;;;;5080830;28;20040;-85
2022/08/24 09:30:00;;;;;;;4.78;3.88;;;;;;;;;;5085082;28;20704;-81
2022/08/24 09:32:45;;;;;;;7.10;4.38;;;;;;;;;;5073440;28;20085;-83
2022/08/24 09:35:20;;;;;;;5.93;4.13;;;;;;;;;;5083276;28;20092;-82
2022/08/24 09:37:48;;;;;;;5.10;4.18;;;;;;;;;;5084027;28;20484;-82
2022/08/24 09:40:38;;;;;;;5.28;4.50;;;;;;;;;;5088257;28;20468;-82
2022/08/24 09:43:06;;;;;;;7.35;4.30;;;;;;;;;;5086661;28;20099;-83
2022/08/24 09:46:15;;;;;;;6.00;4.40;;;;;;;;;;5090695;28;20038;-82
2022/08/24 09:49:12;;;;;;;5.95;4.22;;;;;;;;;;5066102;28;20726;-83
2022/08/24 09:51:51;;;;;;;4.95;4.15;;;;;;;;;;5087911;28;20039;-83
2022/08/24 09:54:43;;;;;;;8.75;4.35;;;;;;;;;;5084915;28;20042;-83
2022/08/24 09:57:11;;;;;;;7.28;4.80;;;;;;;;;;5083752;28;20073;-82
2022/08/24 10:00:13;;;;;;;6.35;4.45;;;;;;;;;;5088872;28;20031;-82
2022/08/24 10:02:53;;;;;;;6.18;4.32;;;;;;;;;;5086412;28;20032;-83
2022/08/24 10:05:21;;;;;;;4.63;3.72;;;;;;;;;;5087712;28;20019;-83
2022/08/24 10:08:02;;;;;;;5.88;4.47;;;;;;;;;;5085610;28;20066;-82
2022/08/24 10:10:33;;;;;;;7.13;4.22;;;;;;;;;;5085783;28;20114;-82
2022/08/24 10:13:16;;;;;;;6.10;4.43;;;;;;;;;;5081977;28;20021;-81
2022/08/24 10:15:57;;;;;;;4.72;4.22;;;;;;;;;;5087013;28;20027;-81
2022/08/24 10:18:54;;;;;;;5.97;4.18;;;;;;;;;;5084003;28;20518;-82
2022/08/24 10:22:01;;;;;;;4.45;3.92;;;;;;;;;;5084498;28;20446;-84
2022/08/24 10:24:54;;;;;;;4.95;3.70;;;;;;;;;;5086080;28;20036;-83
2022/08/24 10:27:32;;;;;;;3.90;3.45;;;;;;;;;;5085321;28;20169;-84
2022/08/24 10:30:41;;;;;;;5.57;4.28;;;;;;;;;;5086660;28;20471;-82
2022/08/24 10:33:09;;;;;;;5.30;4.15;;;;;;;;;;5084942;28;20415;-86
2022/08/24 10:36:20;;;;;;;4.82;3.72;;;;;;;;;;5086803;28;20115;-83
2022/08/24 10:39:42;;;;;;;7.45;4.80;;;;;;;;;;5107597;28;20754;-86
2022/08/24 10:45:59;;;;;;;5.55;4.78;;;;;;;;;;5086228;28;20489;-82
2022/08/24 10:48:31;;;;;;;5.88;4.22;;;;;;;;;;5087559;28;20039;-82
2022/08/24 10:51:18;;;;;;;7.68;4.00;;;;;;;;;;5083572;28;20020;-83
2022/08/24 10:53:49;;;;;;;5.57;4.40;;;;;;;;;;5082086;28;20495;-83
2022/08/24 10:56:19;;;;;;;8.20;3.95;;;;;;;;;;5082703;28;20024;-85
2022/08/24 10:58:49;;;;;;;5.03;4.32;;;;;;;;;;5081418;28;20616;-81
2022/08/24 11:01:36;;;;;;;5.18;3.85;;;;;;;;;;5088334;28;20028;-83
2022/08/24 11:04:05;;;;;;;6.05;4.57;;;;;;;;;;5087065;28;20040;-83
2022/08/24 11:06:42;;;;;;;4.50;4.10;;;;;;;;;;5088698;28;20024;-82
2022/08/24 11:09:14;;;;;;;8.80;4.53;;;;;;;;;;5089833;28;20031;-82
2022/08/24 11:11:46;;;;;;;5.75;4.15;;;;;;;;;;5085656;28;20024;-81
2022/08/24 11:14:28;;;;;;;5.53;4.10;;;;;;;;;;5090390;28;20099;-82
2022/08/24 11:17:14;;;;;;;6.65;4.55;;;;;;;;;;5084731;28;20054;-82
2022/08/24 11:19:39;;;;;;;5.53;3.97;;;;;;;;;;5086601;28;20028;-82
2022/08/24 11:22:26;;;;;;;7.82;4.32;;;;;;;;;;5087183;28;20035;-83
2022/08/24 11:24:54;;;;;;;5.40;4.72;;;;;;;;;;5086675;28;20020;-84
2022/08/24 11:27:44;;;;;;;8.60;4.33;;;;;;;;;;5088611;28;20031;-83
2022/08/24 11:30:22;;;;;;;7.47;4.53;;;;;;;;;;5088115;28;20468;-83
2022/08/24 11:33:05;;;;;;;5.05;4.30;;;;;;;;;;5084875;28;20028;-83
2022/08/24 11:35:30;;;;;;;6.05;4.35;;;;;;;;;;5084614;28;20028;-85
2022/08/24 11:38:13;;;;;;;7.07;4.43;;;;;;;;;;5085618;28;20506;-82
2022/08/24 11:40:58;;;;;;;5.55;4.68;;;;;;;;;;5086608;28;20035;-83
2022/08/24 11:44:04;;;;;;;6.75;4.35;;;;;;;;;;5082659;28;20095;-83
2022/08/24 11:46:52;;;;;;;11.70;4.57;;;;;;;;;;5082710;28;20448;-83
2022/08/24 11:49:37;;;;;;;5.88;4.30;;;;;;;;;;5090824;28;20533;-82
2022/08/24 11:52:03;;;;;;;5.28;3.90;;;;;;;;;;5088903;28;20052;-83
2022/08/24 11:55:04;;;;;;;8.57;4.63;;;;;;;;;;5089670;28;20030;-85
2022/08/24 11:57:42;;;;;;;6.95;4.10;;;;;;;;;;5081561;28;20691;-84
2022/08/24 12:00:17;;;;;;;5.60;4.40;;;;;;;;;;5087720;28;20027;-83
2022/08/24 12:03:04;;;;;;;6.50;4.20;;;;;;;;;;5087584;28;20124;-83
2022/08/24 12:05:38;;;;;;;5.80;4.32;;;;;;;;;;5090938;28;20039;-83
2022/08/24 12:08:23;;;;;;;4.75;3.78;;;;;;;;;;5089398;28;20051;-83
2022/08/24 12:10:48;;;;;;;5.55;4.95;;;;;;;;;;5089456;28;20039;-82
2022/08/24 12:13:52;;;;;;;7.72;4.20;;;;;;;;;;5086599;28;20028;-82
2022/08/24 12:16:29;;;;;;;6.95;4.45;;;;;;;;;;5086688;28;20024;-83
2022/08/24 12:19:05;;;;;;;6.20;4.43;;;;;;;;;;5086746;28;20028;-83
2022/08/24 12:21:35;;;;;;;8.38;4.18;;;;;;;;;;5083219;28;20016;-82
2022/08/24 12:24:07;;;;;;;6.50;4.10;;;;;;;;;;5083798;28;20031;-86
2022/08/24 12:26:44;;;;;;;8.27;4.68;;;;;;;;;;5086712;28;20027;-83
2022/08/24 12:29:18;;;;;;;6.38;4.63;;;;;;;;;;5088484;28;20109;-85
2022/08/24 12:31:50;;;;;;;6.53;4.10;;;;;;;;;;5084672;28;20396;-84
2022/08/24 12:34:23;;;;;;;6.85;4.32;;;;;;;;;;5089047;28;20082;-83
2022/08/24 12:37:13;;;;;;;6.55;4.45;;;;;;;;;;5086209;28;20028;-82
2022/08/24 12:39:47;;;;;;;6.50;4.20;;;;;;;;;;5083111;28;20032;-84
2022/08/24 12:42:36;;;;;;;8.20;5.07;;;;;;;;;;5086539;28;20034;-84
2022/08/24 12:45:16;;;;;;;5.75;4.55;;;;;;;;;;5082515;28;20150;-86
2022/08/24 12:47:51;;;;;;;5.82;4.68;;;;;;;;;;5087057;28;20618;-84
2022/08/24 12:50:45;;;;;;;6.95;4.80;;;;;;;;;;5086453;28;20028;-84
2022/08/24 12:53:19;;;;;;;6.45;4.72;;;;;;;;;;5084448;28;20055;-84
2022/08/24 12:55:53;;;;;;;6.88;5.28;;;;;;;;;;5089628;28;20031;-84
2022/08/24 12:58:51;;;;;;;7.93;4.80;;;;;;;;;;5088116;28;20438;-83
2022/08/24 13:01:19;;;;;;;11.27;6.25;;;;;;;;;;5035784;28;20040;-84
2022/08/24 13:03:48;;;;;;;7.38;4.45;;;;;;;;;;5086696;28;20501;-83
2022/08/24 13:06:26;;;;;;;8.50;5.25;;;;;;;;;;5088121;28;20031;-84
2022/08/24 13:09:26;;;;;;;9.23;5.22;;;;;;;;;;5089310;28;20042;-83
2022/08/24 13:11:54;;;;;;;6.97;5.13;;;;;;;;;;5076429;28;20040;-83
2022/08/24 13:14:23;;;;;;;6.90;4.45;;;;;;;;;;5085476;28;20072;-84
2022/08/24 13:16:55;;;;;;;14.95;5.00;;;;;;;;;;5086287;28;20482;-83
2022/08/24 13:19:29;;;;;;;7.43;4.70;;;;;;;;;;5085232;28;20025;-83
2022/08/24 13:21:57;;;;;;;10.00;6.90;;;;;;;;;;5087438;28;20024;-83
2022/08/24 13:24:29;;;;;;;6.68;5.18;;;;;;;;;;5090717;28;20035;-84
2022/08/24 13:27:10;;;;;;;9.80;5.43;;;;;;;;;;5091543;28;20031;-82
2022/08/24 13:29:36;;;;;;;9.90;6.82;;;;;;;;;;5087203;28;20036;-83
2022/08/24 13:32:03;;;;;;;6.43;5.07;;;;;;;;;;5089182;28;20467;-83
2022/08/24 13:34:40;;;;;;;8.13;5.15;;;;;;;;;;5088902;28;20035;-83
2022/08/24 13:37:22;;;;;;;8.50;5.25;;;;;;;;;;5087796;28;20028;-82
2022/08/24 13:39:53;;;;;;;7.10;5.13;;;;;;;;;;5090369;28;20028;-83
2022/08/24 13:42:34;;;;;;;9.48;5.50;;;;;;;;;;5086128;28;20354;-85
2022/08/24 13:45:41;;;;;;;8.40;5.18;;;;;;;;;;5084848;28;20020;-84
2022/08/24 13:48:07;;;;;;;7.82;5.10;;;;;;;;;;5084280;28;20028;-83
2022/08/24 13:51:11;;;;;;;8.32;5.00;;;;;;;;;;5089373;28;20043;-83
2022/08/24 13:53:45;;;;;;;9.95;5.32;;;;;;;;;;5089485;28;20480;-83
2022/08/24 13:56:22;;;;;;;9.13;5.43;;;;;;;;;;5086923;28;20491;-83
2022/08/24 13:59:23;;;;;;;11.50;5.82;;;;;;;;;;5088654;28;20020;-84
2022/08/24 14:01:57;;;;;;;13.40;6.20;;;;;;;;;;5082457;28;20020;-83
2022/08/24 14:04:23;;;;;;;6.30;5.53;;;;;;;;;;5085312;28;20713;-83
2022/08/24 14:06:51;;;;;;;12.15;5.57;;;;;;;;;;5083619;28;20047;-83
2022/08/24 14:09:35;;;;;;;8.27;5.68;;;;;;;;;;5085556;28;20101;-83
2022/08/24 14:12:24;;;;;;;8.35;5.22;;;;;;;;;;5087230;28;20020;-85
2022/08/24 14:14:57;;;;;;;;;;;;;;;;;;5116718;28;20028;-84
2022/08/24 14:17:51;;;;;;;7.82;5.82;;;;;;;;;;5084276;28;19931;-83
2022/08/24 14:20:38;;;;;;;9.40;5.85;;;;;;;;;;5085304;28;20352;-83
2022/08/24 14:23:21;;;;;;;7.70;5.50;;;;;;;;;;5088202;28;20020;-86
2022/08/24 14:25:48;;;;;;;9.00;5.57;;;;;;;;;;5085515;28;20369;-84
2022/08/24 14:28:23;;;;;;;8.20;5.35;;;;;;;;;;5088803;28;20043;-86
2022/08/24 14:31:19;;;;;;;7.03;5.30;;;;;;;;;;5088130;28;20494;-84
2022/08/24 14:34:14;;;;;;;9.65;5.35;;;;;;;;;;5122547;27;20061;-85
2022/08/24 14:36:51;;;;;;;9.23;5.53;;;;;;;;;;5088300;28;20035;-85
2022/08/24 14:39:38;;;;;;;6.50;4.60;;;;;;;;;;5087928;28;20048;-84
2022/08/24 14:42:32;;;;;;;12.40;5.20;;;;;;;;;;5083239;28;20410;-84
2022/08/24 14:45:14;;;;;;;9.15;5.82;;;;;;;;;;5091160;28;20051;-84
2022/08/24 14:48:00;;;;;;;7.07;5.25;;;;;;;;;;5092297;28;20031;-84
2022/08/24 14:50:58;;;;;;;9.07;5.22;;;;;;;;;;5091202;28;20016;-85
2022/08/24 14:53:42;;;;;;;8.18;5.28;;;;;;;;;;5090879;28;20040;-82
2022/08/24 14:56:36;;;;;;;9.10;5.50;;;;;;;;;;5092610;28;20103;-84
2022/08/24 14:59:08;;;;;;;7.28;5.40;;;;;;;;;;5089835;28;20478;-83
2022/08/24 15:01:43;;;;;;;8.52;5.60;;;;;;;;;;5091126;28;21318;-83
2022/08/24 15:04:20;;;;;;;8.27;5.88;;;;;;;;;;5090150;28;20426;-84
2022/08/24 15:07:05;;;;;;;10.80;5.32;;;;;;;;;;5088910;28;20024;-82
2022/08/24 15:09:37;;;;;;;7.80;5.65;;;;;;;;;;5090281;28;20036;-83
2022/08/24 15:12:34;;;;;;;9.80;5.50;;;;;;;;;;5092460;28;20055;-85
2022/08/24 15:15:08;;;;;;;7.85;5.82;;;;;;;;;;5091238;28;20089;-83
2022/08/24 15:17:42;;;;;;;10.68;5.70;;;;;;;;;;5092040;28;20036;-84
2022/08/24 15:20:17;;;;;;;8.65;5.85;;;;;;;;;;5091708;28;20107;-84
2022/08/24 15:22:55;;;;;;;12.48;5.75;;;;;;;;;;5094523;28;20503;-84
2022/08/24 15:25:46;;;;;;;8.48;5.75;;;;;;;;;;5091636;28;20480;-84